createdAt,value
2019-02-05T00:00:54.583Z,100.00
2019-02-05T00:03:28.378Z,100.00
2019-02-05T00:05:59.448Z,100.00
2019-02-05T00:08:30.503Z,100.00
2019-02-05T00:11:02.077Z,100.00
2019-02-05T00:13:33.226Z,100.00
2019-02-05T00:16:04.263Z,100.00
2019-02-05T00:18:35.237Z,100.00
2019-02-05T00:21:08.762Z,100.00
2019-02-05T00:23:39.552Z,100.00
2019-02-05T00:26:10.612Z,100.00
2019-02-05T00:28:41.873Z,100.00
2019-02-05T00:31:13.053Z,100.00
2019-02-05T00:33:44.496Z,100.00
2019-02-05T00:36:16.355Z,100.00
2019-02-05T00:38:47.162Z,100.00
2019-02-05T00:41:18.444Z,100.00
2019-02-05T00:43:52.254Z,100.00
2019-02-05T00:46:23.143Z,100.00
2019-02-05T00:48:54.545Z,100.00
2019-02-05T00:51:27.150Z,100.00
2019-02-05T00:53:58.380Z,100.00
2019-02-05T00:56:29.791Z,100.00
2019-02-05T00:59:02.403Z,100.00
2019-02-05T01:01:33.990Z,100.00
2019-02-05T01:04:06.141Z,100.00
2019-02-05T01:06:36.867Z,100.00
2019-02-05T01:09:11.757Z,100.00
2019-02-05T01:11:42.537Z,100.00
2019-02-05T01:14:15.859Z,100.00
2019-02-05T01:16:46.888Z,100.00
2019-02-05T01:19:17.545Z,100.00
2019-02-05T01:21:48.755Z,100.00
2019-02-05T01:24:19.626Z,100.00
2019-02-05T01:26:50.101Z,100.00
2019-02-05T01:29:20.772Z,100.00
2019-02-05T01:31:51.552Z,100.00
2019-02-05T01:34:22.490Z,100.00
2019-02-05T01:36:53.807Z,100.00
2019-02-05T01:39:24.579Z,100.00
2019-02-05T01:41:55.536Z,100.00
2019-02-05T01:44:26.310Z,100.00
2019-02-05T01:46:56.756Z,100.00
2019-02-05T01:49:27.625Z,100.00
2019-02-05T01:51:59.293Z,100.00
2019-02-05T01:54:30.774Z,100.00
2019-02-05T01:57:04.434Z,100.00
2019-02-05T01:59:35.631Z,100.00
2019-02-05T02:02:07.393Z,100.00
2019-02-05T02:04:38.672Z,100.00
2019-02-05T02:07:10.356Z,100.00
2019-02-05T02:09:43.309Z,100.00
2019-02-05T02:12:14.869Z,100.00
2019-02-05T02:14:46.291Z,100.00
2019-02-05T02:17:17.242Z,100.00
2019-02-05T02:19:48.217Z,100.00
2019-02-05T02:22:19.405Z,100.00
2019-02-05T02:24:50.674Z,100.00
2019-02-05T02:27:21.689Z,100.00
2019-02-05T02:29:53.755Z,100.00
2019-02-05T02:32:25.269Z,100.00
2019-02-05T02:34:56.581Z,100.00
2019-02-05T02:37:27.712Z,100.00
2019-02-05T02:40:01.489Z,100.00
2019-02-05T02:42:32.397Z,100.00
2019-02-05T02:45:03.015Z,100.00
2019-02-05T02:47:33.534Z,100.00
2019-02-05T02:50:04.754Z,100.00
2019-02-05T02:52:35.530Z,100.00
2019-02-05T02:55:07.391Z,100.00
2019-02-05T02:57:38.024Z,100.00
2019-02-05T03:00:12.114Z,100.00
2019-02-05T03:02:42.819Z,100.00
2019-02-05T03:05:15.360Z,100.00
2019-02-05T03:07:46.148Z,100.00
2019-02-05T03:10:26.287Z,100.00
2019-02-05T03:12:57.591Z,100.00
2019-02-05T03:15:28.868Z,100.00
2019-02-05T03:18:01.098Z,100.00
2019-02-05T03:20:32.423Z,100.00
2019-02-05T03:23:03.133Z,100.00
2019-02-05T03:25:33.657Z,100.00
2019-02-05T03:28:04.124Z,100.00
2019-02-05T03:30:34.700Z,100.00
2019-02-05T03:33:05.454Z,100.00
2019-02-05T03:35:37.697Z,100.00
2019-02-05T03:38:08.559Z,100.00
2019-02-05T03:41:10.449Z,100.00
2019-02-05T03:44:00.955Z,100.00
2019-02-05T03:46:34.994Z,100.00
2019-02-05T03:49:06.441Z,100.00
2019-02-05T03:52:10.340Z,100.00
2019-02-05T03:55:24.796Z,100.00
2019-02-05T03:58:39.005Z,100.00
2019-02-05T04:01:45.206Z,100.00
2019-02-05T04:05:10.249Z,100.00
2019-02-05T04:08:33.288Z,100.00
2019-02-05T04:11:38.809Z,100.00
2019-02-05T04:14:52.808Z,100.00
2019-02-05T04:17:58.222Z,100.00
2019-02-05T04:21:27.387Z,100.00
2019-02-05T04:24:37.377Z,100.00
2019-02-05T04:27:21.719Z,100.00
2019-02-05T04:30:31.107Z,100.00
2019-02-05T04:33:26.882Z,100.00
2019-02-05T04:36:26.020Z,100.00
2019-02-05T04:39:41.664Z,100.00
2019-02-05T04:42:34.687Z,100.00
2019-02-05T04:45:47.632Z,100.00
2019-02-05T04:48:50.863Z,100.00
2019-02-05T04:52:23.373Z,100.00
2019-02-05T04:55:29.416Z,100.00
2019-02-05T04:58:31.382Z,100.00
2019-02-05T05:01:31.785Z,100.00
2019-02-05T05:04:39.761Z,100.00
2019-02-05T05:07:40.174Z,100.00
2019-02-05T05:10:11.130Z,100.00
2019-02-05T05:12:41.745Z,100.00
2019-02-05T05:15:13.845Z,100.00
2019-02-05T05:17:45.017Z,100.00
2019-02-05T05:20:17.175Z,100.00
2019-02-05T05:22:48.244Z,100.00
2019-02-05T05:25:20.849Z,100.00
2019-02-05T05:27:55.476Z,100.00
2019-02-05T05:32:54.342Z,100.00
2019-02-05T05:35:23.916Z,100.00
2019-02-05T05:37:53.719Z,100.00
2019-02-05T05:40:23.340Z,100.00
2019-02-05T05:42:53.007Z,100.00
2019-02-05T05:45:22.602Z,100.00
2019-02-05T05:47:52.306Z,100.00
2019-02-05T05:50:21.933Z,100.00
2019-02-05T05:53:07.546Z,100.00
2019-02-05T05:55:41.181Z,100.00
2019-02-05T05:58:22.349Z,100.00
2019-02-05T06:00:44.798Z,100.00
2019-02-05T06:03:16.167Z,100.00
2019-02-05T06:05:47.610Z,100.00
2019-02-05T06:08:18.629Z,100.00
2019-02-05T06:10:49.180Z,100.00
2019-02-05T06:13:21.624Z,100.00
2019-02-05T06:15:55.380Z,100.00
2019-02-05T06:18:26.153Z,100.00
2019-02-05T06:20:57.752Z,100.00
2019-02-05T06:23:28.058Z,100.00
2019-02-05T06:25:58.694Z,100.00
2019-02-05T06:28:34.636Z,100.00
2019-02-05T06:31:03.452Z,100.00
2019-02-05T06:33:33.505Z,100.00
2019-02-05T06:36:09.594Z,100.00
2019-02-05T06:38:40.145Z,100.00
2019-02-05T06:41:11.451Z,100.00
2019-02-05T06:43:43.399Z,100.00
2019-02-05T06:46:14.822Z,100.00
2019-02-05T06:48:46.012Z,100.00
2019-02-05T06:51:17.377Z,100.00
2019-02-05T06:53:48.473Z,100.00
2019-02-05T06:56:21.206Z,100.00
2019-02-05T06:58:56.081Z,100.00
2019-02-05T07:01:31.145Z,100.00
2019-02-05T07:04:05.929Z,100.00
2019-02-05T07:06:45.832Z,100.00
2019-02-05T07:09:17.536Z,100.00
2019-02-05T07:11:52.374Z,100.00
2019-02-05T07:14:24.575Z,100.00
2019-02-05T07:16:56.708Z,100.00
2019-02-05T07:19:29.779Z,100.00
2019-02-05T07:22:03.097Z,100.00
2019-02-05T07:24:34.716Z,100.00
2019-02-05T07:27:05.174Z,100.00
2019-02-05T07:29:35.681Z,100.00
2019-02-05T07:32:06.994Z,100.00
2019-02-05T07:34:37.547Z,100.00
2019-02-05T07:37:08.253Z,100.00
2019-02-05T07:39:38.924Z,100.00
2019-02-05T07:44:59.105Z,100.00
2019-02-05T07:47:30.480Z,100.00
2019-02-05T07:50:00.968Z,100.00
2019-02-05T07:52:32.079Z,100.00
2019-02-05T07:55:03.155Z,100.00
2019-02-05T07:57:33.762Z,100.00
2019-02-05T08:00:07.379Z,100.00
2019-02-05T08:02:39.040Z,100.00
2019-02-05T08:05:14.996Z,100.00
2019-02-05T08:07:46.666Z,100.00
2019-02-05T08:17:08.972Z,100.00
2019-02-05T08:23:01.616Z,100.00
2019-02-05T08:25:40.356Z,100.00
2019-02-05T08:28:40.552Z,100.00
2019-02-05T08:31:08.447Z,100.00
2019-02-05T08:33:41.048Z,100.00
2019-02-05T08:36:12.574Z,100.00
2019-02-05T08:38:54.209Z,100.00
2019-02-05T08:57:12.121Z,100.00
2019-02-05T09:00:09.306Z,100.00
2019-02-05T09:02:38.960Z,100.00
2019-02-05T09:05:08.982Z,100.00
2019-02-05T09:07:38.557Z,100.00
2019-02-05T09:10:10.611Z,100.00
2019-02-05T09:12:40.311Z,100.00
2019-02-05T09:15:11.629Z,100.00
2019-02-05T09:17:41.406Z,100.00
2019-02-05T09:20:12.900Z,100.00
2019-02-05T09:22:42.650Z,100.00
2019-02-05T09:25:12.700Z,100.00
2019-02-05T09:27:42.302Z,100.00
2019-02-05T09:38:12.062Z,100.00
2019-02-05T09:44:31.543Z,100.00
2019-02-05T09:47:02.441Z,92.74
2019-02-05T09:49:32.070Z,96.67
2019-02-05T09:52:01.859Z,90.17
2019-02-05T09:54:31.590Z,83.14
2019-02-05T09:57:01.218Z,91.07
2019-02-05T09:59:31.104Z,93.11
2019-02-05T10:02:00.748Z,92.56
2019-02-05T10:04:30.337Z,98.88
2019-02-05T10:06:59.990Z,92.89
2019-02-05T10:09:29.598Z,93.32
2019-02-05T10:11:59.222Z,91.84
2019-02-05T10:14:28.946Z,86.56
2019-02-05T10:17:38.746Z,74.56
2019-02-05T10:20:09.144Z,70.63
2019-02-05T10:22:39.009Z,77.58
2019-02-05T10:25:09.589Z,83.72
2019-02-05T10:27:39.461Z,92.60
2019-02-05T10:30:30.763Z,93.89
2019-02-05T10:33:02.865Z,93.17
2019-02-05T10:35:32.608Z,93.90
2019-02-05T10:38:02.240Z,79.46
2019-02-05T10:40:32.084Z,83.94
2019-02-05T10:43:01.873Z,79.50
2019-02-05T10:45:31.543Z,83.25
2019-02-05T10:48:01.187Z,74.10
2019-02-05T10:50:30.747Z,73.50
2019-02-05T10:53:00.339Z,76.99
2019-02-05T10:55:30.011Z,77.01
2019-02-05T10:57:59.604Z,73.26
2019-02-05T11:00:30.857Z,77.17
2019-02-05T11:03:02.273Z,73.17
2019-02-05T11:05:32.576Z,70.91
2019-02-05T11:08:02.254Z,74.19
2019-02-05T11:10:32.085Z,84.11
2019-02-05T11:13:01.772Z,75.53
2019-02-05T11:15:32.917Z,78.06
2019-02-05T11:18:03.042Z,78.06
2019-02-05T11:20:32.810Z,71.28
2019-02-05T11:23:02.489Z,80.65
2019-02-05T11:25:32.220Z,69.00
2019-02-05T11:28:01.877Z,72.64
2019-02-05T11:30:51.582Z,75.51
2019-02-05T11:33:21.177Z,81.93
2019-02-05T11:35:50.762Z,84.95
2019-02-05T11:38:20.576Z,80.91
2019-02-05T11:40:50.310Z,78.00
2019-02-05T11:43:19.918Z,71.39
2019-02-05T11:45:49.674Z,70.77
2019-02-05T11:48:20.238Z,75.16
2019-02-05T11:50:49.889Z,79.76
2019-02-05T11:53:19.627Z,70.26
2019-02-05T11:55:49.233Z,72.72
2019-02-05T11:58:18.907Z,74.53
2019-02-05T12:01:01.054Z,70.21
2019-02-05T12:03:30.726Z,72.50
2019-02-05T12:06:00.321Z,72.42
2019-02-05T12:08:30.020Z,71.44
2019-02-05T12:10:59.575Z,68.61
2019-02-05T12:13:29.242Z,82.54
2019-02-05T12:15:58.920Z,78.90
2019-02-05T12:18:28.679Z,79.91
2019-02-05T12:20:58.314Z,74.35
2019-02-05T12:23:28.258Z,79.94
2019-02-05T12:25:57.884Z,75.98
2019-02-05T12:28:27.520Z,86.84
2019-02-05T12:30:57.336Z,80.50
2019-02-05T12:33:28.698Z,91.36
2019-02-05T12:35:58.381Z,83.93
2019-02-05T12:38:28.103Z,91.91
2019-02-05T12:40:57.754Z,97.50
2019-02-05T12:43:27.527Z,98.71
2019-02-05T12:45:57.329Z,90.09
2019-02-05T12:48:28.651Z,96.59
2019-02-05T12:50:58.346Z,90.73
2019-02-05T12:53:28.210Z,89.07
2019-02-05T12:55:57.837Z,96.46
2019-02-05T12:58:27.464Z,97.24
2019-02-05T13:01:16.447Z,92.68
2019-02-05T13:03:46.073Z,99.05
2019-02-05T13:06:15.848Z,93.31
2019-02-05T13:08:45.505Z,97.56
2019-02-05T13:11:15.289Z,91.83
2019-02-05T13:14:05.667Z,92.18
2019-02-05T13:16:35.280Z,100.00
2019-02-05T13:19:05.029Z,100.00
2019-02-05T13:21:34.648Z,96.15
2019-02-05T13:24:04.532Z,91.16
2019-02-05T13:26:34.158Z,84.78
2019-02-05T13:29:03.793Z,88.42
2019-02-05T13:31:33.406Z,85.83
2019-02-05T13:34:03.090Z,82.43
2019-02-05T13:36:32.851Z,86.17
2019-02-05T13:39:02.781Z,79.18
2019-02-05T13:41:32.364Z,84.62
2019-02-05T13:44:03.893Z,92.65
2019-02-05T13:46:33.494Z,92.66
2019-02-05T13:49:03.058Z,98.86
2019-02-05T13:51:32.698Z,97.73
2019-02-05T13:54:02.289Z,100.00
2019-02-05T13:56:31.987Z,86.74
2019-02-05T13:59:01.639Z,97.09
2019-02-05T14:01:31.238Z,100.00
2019-02-05T14:04:00.885Z,98.18
2019-02-05T14:06:30.607Z,96.99
2019-02-05T14:09:10.302Z,99.58
2019-02-05T14:11:31.587Z,100.00
2019-02-05T14:14:01.224Z,100.00
2019-02-05T14:16:30.820Z,99.54
2019-02-05T14:19:00.463Z,91.87
2019-02-05T14:21:30.191Z,99.85
2019-02-05T14:23:59.847Z,100.00
2019-02-05T14:26:29.458Z,100.00
2019-02-05T14:28:59.209Z,100.00
2019-02-05T14:31:31.397Z,100.00
2019-02-05T14:37:54.726Z,100.00
2019-02-05T14:40:28.302Z,100.00
2019-02-05T14:43:02.068Z,100.00
2019-02-05T14:45:34.598Z,100.00
2019-02-05T14:48:09.919Z,100.00
2019-02-05T14:51:01.583Z,100.00
2019-02-05T14:53:35.083Z,100.00
2019-02-05T14:56:10.756Z,100.00
2019-02-05T14:58:46.214Z,100.00
2019-02-05T15:01:18.253Z,100.00
2019-02-05T15:03:51.857Z,100.00
2019-02-05T15:06:25.082Z,100.00
2019-02-05T15:08:59.225Z,100.00
2019-02-05T15:11:33.992Z,100.00
2019-02-05T15:14:07.639Z,100.00
2019-02-05T15:16:40.258Z,100.00
2019-02-05T15:19:24.504Z,100.00
2019-02-05T15:21:56.852Z,100.00
2019-02-05T15:27:23.981Z,100.00
2019-02-05T15:30:36.107Z,100.00
2019-02-05T15:36:41.151Z,100.00
2019-02-05T15:39:48.130Z,100.00
2019-02-05T15:42:26.909Z,100.00
2019-02-05T15:45:01.093Z,100.00
2019-02-05T15:47:38.553Z,100.00
2019-02-05T15:53:12.189Z,100.00
2019-02-05T15:55:49.823Z,100.00
2019-02-05T15:58:24.569Z,100.00
2019-02-05T16:01:00.625Z,100.00
2019-02-05T16:03:35.533Z,100.00
2019-02-05T16:06:27.110Z,100.00
2019-02-05T16:09:03.839Z,100.00
2019-02-05T16:11:57.091Z,100.00
2019-02-05T16:14:37.395Z,100.00
2019-02-05T16:17:12.314Z,100.00
2019-02-05T16:19:48.840Z,100.00
2019-02-05T16:22:24.085Z,100.00
2019-02-05T16:25:00.777Z,100.00
2019-02-05T16:27:53.076Z,100.00
2019-02-05T16:33:28.562Z,100.00
2019-02-05T16:36:00.016Z,100.00
2019-02-05T16:38:29.703Z,100.00
2019-02-05T16:40:59.353Z,100.00
2019-02-05T16:43:28.966Z,100.00
2019-02-05T16:45:58.423Z,100.00
2019-02-05T16:48:28.110Z,100.00
2019-02-05T16:50:57.879Z,100.00
2019-02-05T16:53:27.477Z,100.00
2019-02-05T16:55:57.131Z,100.00
2019-02-05T16:58:26.731Z,100.00
2019-02-05T17:00:56.337Z,100.00
2019-02-05T17:03:26.098Z,100.00
2019-02-05T17:05:55.989Z,100.00
2019-02-05T17:08:25.560Z,100.00
2019-02-05T17:10:55.332Z,100.00
2019-02-05T17:13:24.919Z,100.00
2019-02-05T17:15:54.521Z,100.00
2019-02-05T17:18:24.485Z,100.00
2019-02-05T17:20:54.091Z,100.00
2019-02-05T17:23:23.776Z,100.00
2019-02-05T17:25:53.444Z,100.00
2019-02-05T17:28:23.056Z,100.00
2019-02-05T17:30:52.649Z,100.00
2019-02-05T17:33:22.290Z,100.00
2019-02-05T17:35:51.871Z,100.00
2019-02-05T17:38:21.527Z,100.00
2019-02-05T17:40:51.195Z,100.00
2019-02-05T17:43:20.882Z,100.00
2019-02-05T17:45:50.494Z,100.00
2019-02-05T17:48:20.352Z,100.00
2019-02-05T17:50:50.010Z,100.00
2019-02-05T17:53:19.952Z,100.00
2019-02-05T17:55:49.641Z,100.00
2019-02-05T17:58:19.235Z,100.00
2019-02-05T18:00:50.905Z,100.00
2019-02-05T18:03:20.881Z,100.00
2019-02-05T18:05:50.497Z,100.00
2019-02-05T18:08:20.245Z,100.00
2019-02-05T18:10:50.005Z,100.00
2019-02-05T18:14:01.555Z,100.00
2019-02-05T18:16:56.449Z,100.00
2019-02-05T18:20:02.351Z,100.00
2019-02-05T18:22:34.275Z,100.00
2019-02-05T18:25:07.776Z,100.00
2019-02-05T18:27:39.271Z,100.00
2019-02-05T18:30:31.726Z,100.00
2019-02-05T18:33:05.201Z,100.00
2019-02-05T18:35:39.126Z,100.00
2019-02-05T18:38:13.461Z,100.00
2019-02-05T18:40:46.268Z,100.00
2019-02-05T18:43:18.313Z,100.00
2019-02-05T18:45:52.304Z,100.00
2019-02-05T18:48:26.998Z,100.00
2019-02-05T18:50:58.511Z,100.00
2019-02-05T18:53:29.984Z,100.00
2019-02-05T18:56:02.743Z,100.00
2019-02-05T18:58:34.617Z,100.00
2019-02-05T19:01:06.769Z,100.00
2019-02-05T19:03:38.469Z,100.00
2019-02-05T19:06:12.260Z,100.00
2019-02-05T19:08:45.460Z,100.00
2019-02-05T19:11:16.666Z,100.00
2019-02-05T19:13:47.669Z,100.00
2019-02-05T19:16:19.169Z,100.00
2019-02-05T19:18:50.203Z,100.00
2019-02-05T19:21:22.682Z,100.00
2019-02-05T19:24:01.464Z,100.00
2019-02-05T19:26:44.910Z,100.00
2019-02-05T19:29:18.914Z,100.00
2019-02-05T19:31:49.888Z,100.00
2019-02-05T19:34:22.919Z,100.00
2019-02-05T19:36:54.258Z,99.56
2019-02-05T19:39:25.541Z,100.00
2019-02-05T19:42:00.612Z,90.96
2019-02-05T19:44:40.123Z,88.68
2019-02-05T19:47:21.196Z,89.19
2019-02-05T19:50:11.822Z,99.99
2019-02-05T19:52:45.249Z,100.00
2019-02-05T19:55:16.373Z,100.00
2019-02-05T19:57:47.629Z,100.00
2019-02-05T20:00:19.431Z,100.00
2019-02-05T20:02:50.318Z,100.00
2019-02-05T20:05:21.530Z,100.00
2019-02-05T20:07:53.734Z,93.32
2019-02-05T20:10:24.616Z,85.66
2019-02-05T20:12:55.647Z,86.49
2019-02-05T20:15:28.258Z,91.79
2019-02-05T20:17:59.484Z,89.32
2019-02-05T20:20:31.673Z,99.62
2019-02-05T20:23:02.807Z,99.92
2019-02-05T20:25:34.345Z,85.61
2019-02-05T20:28:05.618Z,75.15
2019-02-05T20:30:36.518Z,76.24
2019-02-05T20:33:06.986Z,73.95
2019-02-05T20:35:38.274Z,68.72
2019-02-05T20:38:09.015Z,69.99
2019-02-05T20:40:40.559Z,75.72
2019-02-05T20:43:11.368Z,76.50
2019-02-05T20:45:42.621Z,68.37
2019-02-05T20:48:13.944Z,66.44
2019-02-05T20:50:45.507Z,76.05
2019-02-05T20:53:16.630Z,85.91
2019-02-05T20:55:47.840Z,76.50
2019-02-05T20:58:19.421Z,65.73
2019-02-05T21:01:12.057Z,67.59
2019-02-05T21:03:44.351Z,70.74
2019-02-05T21:06:16.426Z,72.13
2019-02-05T21:19:18.168Z,69.84
2019-02-05T21:21:56.704Z,69.95
2019-02-05T21:27:59.922Z,80.52
2019-02-05T21:30:29.814Z,65.30
2019-02-05T21:32:59.470Z,68.79
2019-02-05T21:35:29.150Z,69.56
2019-02-05T21:38:00.916Z,69.35
2019-02-05T21:40:31.647Z,71.12
2019-02-05T21:46:31.195Z,70.05
2019-02-05T21:49:01.485Z,74.97
2019-02-05T21:51:40.328Z,63.59
2019-02-05T21:54:03.765Z,69.24
2019-02-05T21:56:34.088Z,65.40
2019-02-05T21:59:04.714Z,61.47
2019-02-05T22:01:35.069Z,57.47
2019-02-05T22:04:05.943Z,57.33
2019-02-05T22:06:36.435Z,59.38
2019-02-05T22:09:11.269Z,63.32
2019-02-05T22:11:41.718Z,65.23
2019-02-05T22:14:12.290Z,63.38
2019-02-05T22:16:43.447Z,69.60
2019-02-05T22:19:13.465Z,75.19
2019-02-05T22:21:43.072Z,75.33
2019-02-05T22:24:12.842Z,75.98
2019-02-05T22:26:42.478Z,81.72
2019-02-05T22:29:12.111Z,77.90
2019-02-05T22:31:41.792Z,83.44
2019-02-05T22:34:11.716Z,82.96
2019-02-05T22:36:41.414Z,86.85
2019-02-05T22:39:11.582Z,84.74
2019-02-05T22:41:41.167Z,89.17
2019-02-05T22:44:10.838Z,89.45
2019-02-05T22:53:40.973Z,92.17
2019-02-05T22:56:10.624Z,93.31
2019-02-05T22:58:40.261Z,92.43
2019-02-05T23:08:51.068Z,97.54
2019-02-05T23:11:58.745Z,97.25
2019-02-05T23:14:28.470Z,100.00
2019-02-05T23:16:58.230Z,98.03
2019-02-05T23:19:28.042Z,99.27
2019-02-05T23:21:57.804Z,99.37
2019-02-05T23:24:27.423Z,97.76
2019-02-05T23:26:57.207Z,97.63
2019-02-05T23:29:27.171Z,99.68
2019-02-05T23:31:56.971Z,99.62
2019-02-05T23:34:26.624Z,100.00
2019-02-05T23:36:56.443Z,100.00
2019-02-05T23:39:26.068Z,100.00
2019-02-05T23:41:55.704Z,100.00
2019-02-05T23:44:25.675Z,100.00
2019-02-05T23:46:57.055Z,100.00
2019-02-05T23:49:26.700Z,100.00
2019-02-05T23:51:56.504Z,100.00
2019-02-05T23:54:26.161Z,100.00
2019-02-05T23:56:55.804Z,100.00
2019-02-05T23:59:25.521Z,100.00
